Time;durP1;ratioP1;P1;durP2;ratioP2;P2;SDS_P1;SDS_P2;PMS_P1;PMS_P2;Temp;Humidity;BMP_temperature;BMP_pressure;BME280_temperature;BME280_humidity;BME280_pressure;Samples;Min_cycle;Max_cycle;Signal;HPM_P1;HPM_P2
2024/01/15 00:01:00;;;;;;;46.50;25.73;;;;;;;4.01;56.36;94008.78;5031249;28;20219;-66
2024/01/15 00:03:28;;;;;;;48.47;26.73;;;;;;;3.96;56.49;94018.47;5037059;28;20292;-64
2024/01/15 00:05:54;;;;;;;45.80;25.00;;;;;;;4.00;56.55;94016.50;5039684;28;20180;-62
2024/01/15 00:08:21;;;;;;;41.90;24.50;;;;;;;3.97;56.54;94004.09;5033147;28;20667;-65
2024/01/15 00:10:48;;;;;;;46.87;24.90;;;;;;;3.95;56.62;94001.69;5030624;28;20638;-63
2024/01/15 00:13:15;;;;;;;42.03;25.83;;;;;;;3.97;56.62;94004.09;5031214;28;20639;-62
2024/01/15 00:15:41;;;;;;;45.70;24.43;;;;;;;3.96;56.46;94010.06;5030727;28;20549;-61
2024/01/15 00:18:08;;;;;;;44.07;25.13;;;;;;;3.94;56.56;93989.97;5030905;28;20203;-65
2024/01/15 00:20:36;;;;;;;43.87;23.90;;;;;;;3.95;56.58;94005.94;5030567;28;20195;-64
2024/01/15 00:23:04;;;;;;;48.50;25.37;;;;;;;3.81;56.48;93989.28;5030159;28;20218;-61
2024/01/15 00:25:31;;;;;;;40.73;24.57;;;;;;;3.91;56.51;94007.09;5011150;28;20195;-61
2024/01/15 00:27:58;;;;;;;41.33;23.57;;;;;;;3.93;56.55;94013.66;5011004;28;20191;-66
2024/01/15 00:30:25;;;;;;;42.77;25.43;;;;;;;3.71;56.70;93985.78;5011056;28;20559;-62
2024/01/15 00:32:51;;;;;;;41.87;25.03;;;;;;;3.90;56.65;94016.41;5013885;28;20601;-66
2024/01/15 00:35:18;;;;;;;42.60;24.50;;;;;;;3.87;56.70;94014.09;5030965;28;20184;-66
2024/01/15 00:37:46;;;;;;;44.07;24.97;;;;;;;3.69;56.85;93987.66;5030423;28;20659;-64
2024/01/15 00:40:13;;;;;;;44.70;25.47;;;;;;;3.87;56.82;94016.63;5030470;28;20187;-63
2024/01/15 00:42:40;;;;;;;41.50;23.77;;;;;;;3.82;56.79;94003.50;5030222;28;20215;-63
2024/01/15 00:45:08;;;;;;;36.60;23.60;;;;;;;3.86;56.74;94014.22;5030614;28;20196;-67
2024/01/15 00:47:35;;;;;;;40.83;24.00;;;;;;;3.84;56.85;94016.84;5030946;28;20203;-64
2024/01/15 00:50:02;;;;;;;45.47;25.37;;;;;;;3.83;56.66;94020.28;5031080;28;20258;-61
2024/01/15 00:52:29;;;;;;;47.73;26.03;;;;;;;3.53;56.80;93973.59;5030040;28;20714;-67
2024/01/15 00:54:57;;;;;;;40.90;25.10;;;;;;;3.82;56.74;94013.63;5029776;28;20567;-67
2024/01/15 00:57:24;;;;;;;43.63;25.73;;;;;;;3.82;56.84;94015.34;5030426;28;20180;-66
2024/01/15 00:59:51;;;;;;;43.47;25.23;;;;;;;3.74;56.73;94003.28;5030132;28;20231;-65
2024/01/15 01:02:18;;;;;;;43.97;25.73;;;;;;;3.79;56.83;94011.31;5029463;28;20215;-66
2024/01/15 01:04:44;;;;;;;47.30;25.37;;;;;;;3.78;56.96;94013.06;5029827;28;20200;-66
2024/01/15 01:07:11;;;;;;;45.77;25.67;;;;;;;3.79;56.89;94008.78;5030070;28;20191;-66
2024/01/15 01:09:38;;;;;;;42.53;25.00;;;;;;;3.73;57.20;94007.53;5029843;28;20218;-63
2024/01/15 01:12:07;;;;;;;43.07;25.40;;;;;;;3.72;56.80;94003.41;5029947;28;20203;-67
2024/01/15 01:14:34;;;;;;;43.13;24.63;;;;;;;3.77;57.14;94008.13;5029878;28;20199;-63
2024/01/15 01:17:00;;;;;;;46.53;25.40;;;;;;;3.74;57.03;94003.28;5029718;28;20184;-66
2024/01/15 01:19:27;;;;;;;44.40;24.80;;;;;;;3.42;56.85;93947.53;5043783;28;20257;-65
2024/01/15 01:21:54;;;;;;;41.90;25.67;;;;;;;3.74;56.98;93996.50;5047304;28;20199;-66
2024/01/15 01:24:21;;;;;;;45.50;25.30;;;;;;;3.73;57.07;93999.16;5030234;28;20192;-67
2024/01/15 01:26:47;;;;;;;41.87;24.77;;;;;;;3.73;56.98;93989.03;5029775;28;20211;-63
2024/01/15 01:29:16;;;;;;;40.53;23.93;;;;;;;3.72;57.04;93988.22;5029591;28;20188;-68
2024/01/15 01:31:45;;;;;;;42.13;23.97;;;;;;;3.69;56.98;93983.38;5029853;28;20192;-65
2024/01/15 01:34:15;;;;;;;42.60;23.50;;;;;;;3.45;57.02;93944.75;5029816;28;20211;-68
2024/01/15 01:36:42;;;;;;;40.57;23.93;;;;;;;3.72;56.95;93977.31;5030193;28;20191;-68
2024/01/15 01:39:08;;;;;;;44.73;24.40;;;;;;;3.70;57.07;93979.94;5029831;28;20199;-67
2024/01/15 01:41:35;;;;;;;40.57;23.53;;;;;;;3.71;57.08;93973.16;5030267;28;20192;-68
2024/01/15 01:44:02;;;;;;;42.03;23.07;;;;;;;3.72;57.07;93977.31;5029700;28;20277;-69
2024/01/15 01:46:31;;;;;;;39.93;23.17;;;;;;;2.95;56.99;93856.63;5029809;28;20188;-64
2024/01/15 01:49:03;;;;;;;41.43;23.63;;;;;;;3.70;57.10;93971.56;5030060;28;20253;-64
2024/01/15 01:51:30;;;;;;;42.03;23.43;;;;;;;3.69;57.11;93973.28;5030002;28;20198;-62
2024/01/15 01:53:56;;;;;;;43.57;23.90;;;;;;;3.69;57.01;93975.81;5029896;28;20261;-66
2024/01/15 01:56:25;;;;;;;39.73;23.43;;;;;;;3.65;57.31;93964.31;5029411;28;20250;-63
2024/01/15 01:58:51;;;;;;;38.43;22.60;;;;;;;3.68;57.20;93965.81;5029375;28;20188;-67
2024/01/15 02:01:19;;;;;;;41.43;22.73;;;;;;;3.68;56.98;93968.34;5029666;28;20187;-63
2024/01/15 02:03:48;;;;;;;36.27;22.30;;;;;;;3.22;56.97;93901.78;5029901;28;20285;-63
2024/01/15 02:06:15;;;;;;;37.47;21.17;;;;;;;3.66;57.13;93967.63;5029505;28;20663;-63
2024/01/15 02:08:44;;;;;;;38.17;21.20;;;;;;;3.66;57.25;93962.59;5029851;28;20192;-61
2024/01/15 02:11:11;;;;;;;39.03;21.80;;;;;;;3.65;57.18;93959.25;5029619;28;20262;-64
2024/01/15 02:13:40;;;;;;;41.87;21.77;;;;;;;3.65;57.15;93954.19;5028829;28;20204;-62
2024/01/15 02:16:06;;;;;;;34.33;20.50;;;;;;;3.65;57.26;93955.94;5029408;28;20690;-66
2024/01/15 02:18:41;;;;;;;43.60;21.70;;;;;;;3.65;57.32;93951.66;5032631;28;20206;-65
2024/01/15 02:21:09;;;;;;;38.20;21.97;;;;;;;3.64;57.08;93936.63;5033152;28;20183;-62
2024/01/15 02:23:38;;;;;;;38.20;20.93;;;;;;;3.63;57.18;93920.66;5033482;28;20219;-62
2024/01/15 02:26:05;;;;;;;29.57;19.77;;;;;;;3.60;57.17;93895.59;5032954;28;20555;-65
2024/01/15 02:28:34;;;;;;;33.83;20.00;;;;;;;3.42;57.18;93877.56;5013229;28;20192;-70
2024/01/15 02:31:01;;;;;;;38.33;21.30;;;;;;;3.31;57.31;93854.81;5013070;28;20204;-69
2024/01/15 02:33:27;;;;;;;33.07;20.17;;;;;;;3.63;57.29;93902.16;5013604;28;20219;-62
2024/01/15 02:35:54;;;;;;;33.73;19.97;;;;;;;3.56;57.27;93891.69;5015186;28;20660;-66
2024/01/15 02:38:21;;;;;;;30.37;17.90;;;;;;;3.63;57.37;93910.53;5036036;28;20192;-63
2024/01/15 02:40:50;;;;;;;34.70;19.47;;;;;;;3.64;57.36;93903.75;5037875;28;20198;-62
2024/01/15 02:43:19;;;;;;;32.03;18.33;;;;;;;3.64;57.26;93909.63;5012836;28;20223;-67
2024/01/15 02:45:45;;;;;;;35.40;19.47;;;;;;;3.65;57.42;93910.41;5013552;28;20263;-67
2024/01/15 02:48:12;;;;;;;31.87;19.10;;;;;;;3.66;57.37;93912.81;5019432;28;20216;-62
2024/01/15 02:50:39;;;;;;;40.37;19.63;;;;;;;3.63;57.29;93899.63;5033176;28;20191;-62
2024/01/15 02:53:06;;;;;;;37.33;18.67;;;;;;;3.52;57.37;93881.00;5032482;28;20191;-63
2024/01/15 02:55:33;;;;;;;26.90;17.43;;;;;;;3.69;57.36;93907.53;5032459;28;20281;-66
2024/01/15 02:58:01;;;;;;;27.37;18.47;;;;;;;3.71;57.38;93897.31;5012847;28;20188;-67
2024/01/15 03:00:28;;;;;;;32.23;18.10;;;;;;;3.72;57.52;93893.88;5012548;28;20228;-63
2024/01/15 03:02:55;;;;;;;31.30;18.40;;;;;;;3.70;57.39;93888.13;5012197;28;20220;-63
2024/01/15 03:05:22;;;;;;;34.07;20.23;;;;;;;3.74;57.34;93905.47;5014993;28;20250;-67
2024/01/15 03:07:49;;;;;;;34.50;19.53;;;;;;;3.76;57.47;93896.06;5032317;28;20192;-67
2024/01/15 03:10:16;;;;;;;37.23;19.80;;;;;;;3.65;57.35;93875.03;5032138;28;20192;-64
2024/01/15 03:12:43;;;;;;;34.47;18.07;;;;;;;3.77;57.31;93894.34;5032605;28;20191;-62
2024/01/15 03:15:11;;;;;;;26.07;17.50;;;;;;;3.77;57.37;93886.75;5032465;28;20183;-68
2024/01/15 03:17:38;;;;;;;30.30;17.83;;;;;;;3.77;57.26;93886.75;5032414;28;20196;-62
2024/01/15 03:20:05;;;;;;;27.63;17.40;;;;;;;3.77;57.36;93884.22;5031507;28;20188;-64
2024/01/15 03:22:32;;;;;;;28.97;17.93;;;;;;;3.78;57.33;93876.50;5032056;28;20191;-63
2024/01/15 03:24:59;;;;;;;30.53;17.47;;;;;;;3.80;57.54;93886.53;5031949;28;20191;-66
2024/01/15 03:27:26;;;;;;;29.97;17.67;;;;;;;3.83;57.30;93886.25;5032221;28;20187;-65
2024/01/15 03:29:53;;;;;;;34.77;18.63;;;;;;;3.64;57.27;93835.50;5031489;28;20280;-65
2024/01/15 03:32:21;;;;;;;29.73;18.17;;;;;;;3.87;57.18;93874.19;5032040;28;20561;-67
2024/01/15 03:34:48;;;;;;;32.13;18.57;;;;;;;3.89;57.23;93875.69;5032046;28;20302;-62
2024/01/15 03:37:15;;;;;;;29.53;18.13;;;;;;;3.86;57.16;93870.88;5031900;28;20188;-65
2024/01/15 03:39:42;;;;;;;32.57;18.17;;;;;;;3.93;57.16;93871.19;5031896;28;20187;-67
2024/01/15 03:42:08;;;;;;;28.57;18.63;;;;;;;3.92;57.04;93867.84;5031408;28;20634;-66
2024/01/15 03:44:35;;;;;;;34.40;18.00;;;;;;;3.98;57.18;93866.59;5031108;28;20698;-63
2024/01/15 03:47:02;;;;;;;29.57;18.40;;;;;;;3.95;57.30;93865.09;5031563;28;20199;-66
2024/01/15 03:49:30;;;;;;;31.53;18.93;;;;;;;4.02;57.01;93865.44;5031935;28;20211;-67
2024/01/15 03:51:57;;;;;;;29.37;17.50;;;;;;;3.95;57.08;93859.25;5031448;28;20608;-65
2024/01/15 03:54:24;;;;;;;29.63;17.90;;;;;;;4.03;57.13;93874.63;5031609;28;20207;-69
2024/01/15 03:56:50;;;;;;;34.80;19.33;;;;;;;3.94;57.20;93857.63;5031049;28;20195;-68
2024/01/15 03:59:17;;;;;;;35.07;19.00;;;;;;;4.02;57.12;93881.41;5030804;28;20219;-68
2024/01/15 04:01:49;;;;;;;32.73;19.20;;;;;;;3.72;57.64;93828.16;5031580;28;20557;-66
2024/01/15 04:04:16;;;;;;;33.23;19.90;;;;;;;4.01;57.29;93868.88;5031152;28;20718;-68
2024/01/15 04:06:44;;;;;;;33.67;20.43;;;;;;;4.01;57.13;93853.69;5031311;28;20183;-67
2024/01/15 04:09:13;;;;;;;36.67;20.87;;;;;;;3.99;57.06;93842.91;5031076;28;20203;-66
2024/01/15 04:11:39;;;;;;;35.73;21.03;;;;;;;3.66;57.18;93801.59;5030981;28;20199;-62
2024/01/15 04:14:06;;;;;;;40.80;23.30;;;;;;;3.96;57.26;93850.72;5030817;28;20239;-66
2024/01/15 04:16:34;;;;;;;39.37;23.30;;;;;;;3.94;57.07;93855.91;5030824;28;20245;-68
2024/01/15 04:19:01;;;;;;;39.87;22.87;;;;;;;3.92;57.28;93856.94;5031466;28;20183;-65
2024/01/15 04:21:28;;;;;;;43.20;23.30;;;;;;;3.90;57.08;93846.16;5030551;28;20254;-66
2024/01/15 04:23:56;;;;;;;42.70;26.03;;;;;;;3.88;57.29;93853.03;5030859;28;20203;-68
2024/01/15 04:26:23;;;;;;;44.73;25.60;;;;;;;3.86;57.30;93863.28;5030538;28;20196;-61
2024/01/15 04:28:50;;;;;;;48.37;26.37;;;;;;;3.84;57.40;93857.53;5031133;28;20191;-66
2024/01/15 04:31:24;;;;;;;48.60;26.73;;;;;;;3.78;57.45;93852.94;5030841;28;20184;-68
2024/01/15 04:33:51;;;;;;;51.80;29.33;;;;;;;3.74;57.43;93849.84;5030765;28;20187;-64
2024/01/15 04:36:18;;;;;;;60.37;31.00;;;;;;;3.73;57.54;93855.81;5030454;28;20257;-67
2024/01/15 04:38:44;;;;;;;52.37;31.57;;;;;;;3.47;57.35;93809.00;5029865;28;20245;-60
2024/01/15 04:41:14;;;;;;;52.47;31.77;;;;;;;3.73;57.46;93852.50;5029526;28;20250;-66
2024/01/15 04:43:41;;;;;;;60.07;33.33;;;;;;;3.52;57.32;93825.41;5030250;28;20223;-67
2024/01/15 04:46:08;;;;;;;57.73;33.17;;;;;;;3.70;57.45;93847.66;5030408;28;20203;-67
2024/01/15 04:48:35;;;;;;;55.63;32.27;;;;;;;3.68;57.49;93849.53;5030609;28;20195;-66
2024/01/15 04:51:04;;;;;;;58.33;33.53;;;;;;;3.66;57.58;93842.03;5030056;28;20187;-68
2024/01/15 04:53:31;;;;;;;56.27;32.90;;;;;;;3.64;57.65;93840.56;5030436;28;20195;-64
2024/01/15 04:55:58;;;;;;;66.93;35.20;;;;;;;3.60;57.57;93824.81;5030299;28;20195;-65
2024/01/15 04:58:27;;;;;;;61.90;35.03;;;;;;;3.50;57.48;93808.78;5030128;28;20602;-70
2024/01/15 05:00:54;;;;;;;62.13;35.70;;;;;;;3.63;57.60;93829.66;5030954;28;20228;-66
2024/01/15 05:03:21;;;;;;;68.13;36.60;;;;;;;3.62;57.54;93824.69;5030471;28;20712;-66
2024/01/15 05:05:47;;;;;;;69.07;35.90;;;;;;;3.49;57.60;93804.59;5029523;28;20218;-65
2024/01/15 05:08:14;;;;;;;65.47;36.03;;;;;;;3.62;57.69;93833.06;5030040;28;20191;-66
2024/01/15 05:10:41;;;;;;;65.27;36.97;;;;;;;3.62;57.72;93819.63;5031035;28;20518;-68
2024/01/15 05:13:08;;;;;;;72.73;37.37;;;;;;;3.58;57.66;93813.22;5035205;28;20191;-63
2024/01/15 05:15:36;;;;;;;64.33;36.03;;;;;;;3.41;57.79;93784.16;5033474;28;20195;-63
2024/01/15 05:18:03;;;;;;;68.03;36.67;;;;;;;3.60;57.87;93822.28;5030298;28;20188;-63
2024/01/15 05:20:30;;;;;;;75.87;39.27;;;;;;;3.61;57.86;93823.09;5029566;28;20199;-62
2024/01/15 05:22:56;;;;;;;77.17;40.50;;;;;;;3.60;57.79;93831.59;5030078;28;20202;-64
2024/01/15 05:25:23;;;;;;;72.33;40.63;;;;;;;3.56;57.82;93810.81;5029556;28;20235;-65
2024/01/15 05:27:50;;;;;;;72.77;39.87;;;;;;;3.58;57.90;93833.44;5029699;28;20373;-66
2024/01/15 05:30:17;;;;;;;71.17;39.53;;;;;;;3.56;57.82;93825.97;5029575;28;20751;-65
2024/01/15 05:32:45;;;;;;;71.57;40.53;;;;;;;3.55;57.70;93819.31;5029882;28;20220;-64
2024/01/15 05:35:12;;;;;;;77.07;41.77;;;;;;;3.53;57.96;93829.53;5029690;28;20195;-66
2024/01/15 05:37:42;;;;;;;73.03;43.17;;;;;;;3.53;57.84;93831.25;5028989;28;20192;-68
2024/01/15 05:40:10;;;;;;;71.07;41.73;;;;;;;3.53;57.92;93827.00;5029306;28;20578;-67
2024/01/15 05:42:37;;;;;;;76.33;43.43;;;;;;;3.52;57.93;93819.53;5029602;28;20218;-64
2024/01/15 05:45:05;;;;;;;73.97;42.93;;;;;;;3.51;57.82;93805.31;5029005;28;20241;-61
2024/01/15 05:47:32;;;;;;;84.53;45.07;;;;;;;3.30;57.90;93787.53;5028192;28;20608;-65
2024/01/15 05:50:02;;;;;;;83.17;43.23;;;;;;;3.51;57.95;93801.06;5029281;28;20184;-68
2024/01/15 05:52:29;;;;;;;71.63;41.53;;;;;;;3.51;58.02;93805.31;5035395;28;20184;-65
2024/01/15 05:54:55;;;;;;;80.93;42.53;;;;;;;3.34;58.01;93768.69;5033650;28;20658;-64
2024/01/15 05:57:22;;;;;;;74.67;43.27;;;;;;;3.26;57.88;93761.69;5033183;28;20196;-61
2024/01/15 05:59:49;;;;;;;63.57;37.80;;;;;;;3.59;60.95;93803.00;5031835;28;20220;-60
2024/01/15 06:02:16;;;;;;;41.77;26.27;;;;;;;4.45;100.00;93783.63;5030309;28;20245;-64
2024/01/15 06:04:42;;;;;;;54.47;32.53;;;;;;;5.52;100.00;93778.06;5031025;28;20211;-66
2024/01/15 06:07:11;;;;;;;60.47;35.73;;;;;;;6.40;99.71;93790.91;5030792;28;20595;-67
2024/01/15 06:09:38;;;;;;;57.37;34.60;;;;;;;6.37;94.09;93753.88;5030387;28;20717;-66
2024/01/15 06:12:05;;;;;;;64.40;35.53;;;;;;;6.51;88.06;93768.69;5032596;28;20195;-67
2024/01/15 06:14:32;;;;;;;65.30;37.57;;;;;;;6.52;79.74;93788.09;5033353;28;20203;-67
2024/01/15 06:16:59;;;;;;;58.87;35.13;;;;;;;6.43;74.40;93793.16;5033305;28;20588;-71
2024/01/15 06:19:26;;;;;;;67.50;36.70;;;;;;;6.35;71.62;93801.47;5033337;28;20820;-69
2024/01/15 06:21:52;;;;;;;67.13;36.83;;;;;;;6.25;70.12;93803.97;5032690;28;20557;-68
2024/01/15 06:24:21;;;;;;;59.67;36.20;;;;;;;5.92;69.27;93756.16;5033022;28;20227;-70
2024/01/15 06:26:48;;;;;;;65.27;37.57;;;;;;;5.92;68.60;93761.25;5033492;28;20257;-66
2024/01/15 06:29:14;;;;;;;58.67;35.73;;;;;;;6.01;68.09;93789.16;5033415;28;20199;-65
2024/01/15 06:31:41;;;;;;;64.53;36.93;;;;;;;5.97;67.72;93808.13;5033137;28;20650;-67
2024/01/15 06:34:08;;;;;;;61.20;37.47;;;;;;;5.93;67.29;93806.78;5032497;28;20192;-66
2024/01/15 06:36:35;;;;;;;63.00;37.57;;;;;;;5.66;66.84;93764.25;5030719;28;20192;-64
2024/01/15 06:39:02;;;;;;;66.90;39.30;;;;;;;5.96;66.54;93800.66;5032743;28;20707;-65
2024/01/15 06:41:35;;;;;;;64.33;38.43;;;;;;;6.02;65.98;93808.53;5033020;28;20194;-64
2024/01/15 06:44:02;;;;;;;62.53;36.40;;;;;;;6.13;65.54;93811.84;5015395;28;20373;-63
2024/01/15 06:46:29;;;;;;;64.50;38.93;;;;;;;6.23;64.91;93800.78;5032490;28;20211;-65
2024/01/15 06:48:55;;;;;;;67.03;38.20;;;;;;;6.34;64.61;93799.03;5032011;28;20287;-64
2024/01/15 06:51:22;;;;;;;58.57;36.40;;;;;;;6.44;64.02;93807.47;5032361;28;20191;-65
2024/01/15 06:53:49;;;;;;;63.17;38.53;;;;;;;6.49;63.75;93802.78;5032322;28;20275;-66
2024/01/15 06:56:16;;;;;;;61.50;38.03;;;;;;;6.54;63.29;93803.19;5032136;28;20249;-65
2024/01/15 06:58:44;;;;;;;66.47;38.63;;;;;;;6.60;63.26;93804.38;5031960;28;20206;-67
2024/01/15 07:01:11;;;;;;;69.30;40.03;;;;;;;6.63;62.57;93806.66;5031972;28;20231;-61
2024/01/15 07:03:38;;;;;;;62.93;38.30;;;;;;;6.64;62.27;93820.94;5031549;28;20617;-66
2024/01/15 07:06:06;;;;;;;68.53;40.20;;;;;;;6.64;61.95;93819.19;5032326;28;20184;-65
2024/01/15 07:08:32;;;;;;;60.97;36.47;;;;;;;6.64;61.59;93826.81;5032377;28;20600;-64
2024/01/15 07:10:59;;;;;;;60.03;37.60;;;;;;;6.64;61.24;93821.75;5032221;28;20556;-66
2024/01/15 07:13:26;;;;;;;63.70;38.17;;;;;;;6.62;61.01;93821.09;5032010;28;20698;-66
2024/01/15 07:15:54;;;;;;;62.83;37.37;;;;;;;6.62;60.75;93818.53;5031770;28;20602;-66
2024/01/15 07:18:21;;;;;;;61.63;37.07;;;;;;;6.55;60.70;93812.38;5032415;28;20188;-64
2024/01/15 07:20:48;;;;;;;60.53;36.83;;;;;;;6.61;60.63;93814.41;5031991;28;20195;-66
2024/01/15 07:23:14;;;;;;;58.80;35.00;;;;;;;6.58;60.43;93796.88;5031835;28;20199;-65
2024/01/15 07:25:41;;;;;;;61.80;36.27;;;;;;;6.62;60.16;93810.13;5032214;28;20215;-66
2024/01/15 07:28:08;;;;;;;57.30;33.77;;;;;;;6.61;60.19;93799.16;5023537;28;20195;-62
2024/01/15 07:30:35;;;;;;;57.67;35.47;;;;;;;6.60;59.96;93800.09;5031387;28;20195;-64
2024/01/15 07:33:04;;;;;;;55.33;35.07;;;;;;;6.55;60.06;93794.63;5031942;28;20211;-64
2024/01/15 07:35:31;;;;;;;64.47;35.27;;;;;;;6.31;59.83;93748.56;5031792;28;20295;-64
2024/01/15 07:37:57;;;;;;;60.03;35.67;;;;;;;6.59;59.62;93782.44;5035558;28;20187;-67
2024/01/15 07:40:24;;;;;;;59.77;35.93;;;;;;;6.57;59.55;93789.41;5032761;28;20242;-66
2024/01/15 07:42:51;;;;;;;57.33;35.33;;;;;;;6.62;59.52;93802.50;5031530;28;20683;-66
2024/01/15 07:45:18;;;;;;;59.17;35.53;;;;;;;6.66;59.34;93807.19;5032160;28;20649;-67
2024/01/15 07:47:45;;;;;;;62.60;35.07;;;;;;;6.69;59.39;93801.00;5044057;28;20202;-62
2024/01/15 07:50:13;;;;;;;61.77;34.23;;;;;;;6.75;59.14;93805.56;5055344;28;20662;-61
2024/01/15 07:52:41;;;;;;;62.27;34.70;;;;;;;6.79;59.26;93820.41;5031611;28;20192;-63
2024/01/15 07:55:08;;;;;;;59.93;35.53;;;;;;;6.79;59.00;93810.22;5033521;28;20198;-65
2024/01/15 07:57:35;;;;;;;51.30;31.27;;;;;;;6.90;58.88;93801.63;5032394;28;20195;-65
2024/01/15 08:00:03;;;;;;;52.50;32.20;;;;;;;6.96;58.76;93779.97;5032273;28;20310;-63
2024/01/15 08:02:31;;;;;;;52.83;32.97;;;;;;;7.00;58.54;93766.06;5031839;28;20302;-63
2024/01/15 08:04:58;;;;;;;49.10;32.43;;;;;;;6.94;58.45;93769.13;5030285;28;20215;-64
2024/01/15 08:07:27;;;;;;;51.10;31.97;;;;;;;7.15;58.20;93779.91;5031672;28;20183;-66
2024/01/15 08:09:54;;;;;;;56.70;32.97;;;;;;;7.22;58.22;93788.56;5029817;28;20200;-65
2024/01/15 08:12:22;;;;;;;51.77;33.73;;;;;;;7.32;57.99;93803.00;5030028;28;20194;-65
2024/01/15 08:14:49;;;;;;;49.27;31.00;;;;;;;7.39;57.88;93807.38;5030298;28;20220;-62
2024/01/15 08:17:16;;;;;;;54.13;32.13;;;;;;;7.47;57.67;93807.50;5029133;28;20194;-62
2024/01/15 08:19:43;;;;;;;52.53;32.40;;;;;;;7.50;57.63;93798.75;5035688;28;20275;-63
2024/01/15 08:22:10;;;;;;;50.90;32.57;;;;;;;7.61;57.46;93802.88;5017038;28;20560;-60
2024/01/15 08:24:39;;;;;;;52.97;33.87;;;;;;;7.67;57.33;93809.94;5017046;28;20204;-63
2024/01/15 08:27:05;;;;;;;54.23;33.30;;;;;;;7.72;57.14;93813.63;5018864;28;20203;-61
2024/01/15 08:29:34;;;;;;;52.87;31.57;;;;;;;7.79;57.14;93817.22;5016309;28;20195;-61
2024/01/15 08:32:01;;;;;;;48.23;30.43;;;;;;;7.85;57.06;93808.22;5023198;28;20575;-62
2024/01/15 08:34:28;;;;;;;47.70;30.27;;;;;;;7.92;56.76;93801.63;5028399;28;20298;-62
2024/01/15 08:36:55;;;;;;;44.20;30.07;;;;;;;7.95;56.72;93787.81;5018678;28;20187;-62
2024/01/15 08:39:22;;;;;;;52.63;32.27;;;;;;;7.99;56.56;93794.22;5015835;28;20184;-61
2024/01/15 08:41:50;;;;;;;49.37;30.57;;;;;;;8.04;56.38;93779.31;5020822;28;20281;-66
2024/01/15 08:44:16;;;;;;;45.53;30.50;;;;;;;8.12;56.40;93786.19;5028684;28;20686;-61
2024/01/15 08:46:43;;;;;;;50.30;30.03;;;;;;;8.20;56.27;93783.72;5023590;28;20677;-62
2024/01/15 08:49:10;;;;;;;50.93;30.97;;;;;;;8.29;56.01;93776.03;5020625;28;20206;-63
2024/01/15 08:51:37;;;;;;;48.70;29.50;;;;;;;8.41;55.80;93788.56;5023043;28;20659;-66
2024/01/15 08:54:04;;;;;;;46.17;29.73;;;;;;;8.46;55.72;93765.97;5026862;28;20198;-63
2024/01/15 08:56:31;;;;;;;48.00;29.47;;;;;;;8.46;55.58;93756.63;5029078;28;20714;-64
2024/01/15 08:59:00;;;;;;;49.57;29.50;;;;;;;8.67;55.34;93771.56;5027224;28;20675;-67
2024/01/15 09:01:26;;;;;;;45.20;27.70;;;;;;;8.71;55.31;93747.38;5016868;28;20278;-62
2024/01/15 09:03:53;;;;;;;43.90;27.57;;;;;;;8.77;55.22;93751.88;5012277;28;20192;-62
2024/01/15 09:06:20;;;;;;;42.57;26.40;;;;;;;8.78;55.13;93753.47;5016080;28;20290;-66
2024/01/15 09:08:47;;;;;;;37.90;25.10;;;;;;;8.83;55.13;93747.13;5020893;28;20273;-68
2024/01/15 09:11:14;;;;;;;43.30;27.00;;;;;;;8.77;55.00;93715.41;5026191;28;21834;-65
2024/01/15 09:13:40;;;;;;;42.20;25.10;;;;;;;8.90;54.74;93709.91;5016757;28;20200;-65
2024/01/15 09:16:09;;;;;;;42.73;25.13;;;;;;;8.93;54.65;93702.72;5015925;28;20195;-62
2024/01/15 09:18:36;;;;;;;45.90;27.40;;;;;;;8.92;54.60;93695.22;5010930;28;20191;-63
2024/01/15 09:21:05;;;;;;;44.17;25.07;;;;;;;8.93;54.42;93687.44;5026293;28;20203;-62
2024/01/15 09:23:31;;;;;;;43.17;25.53;;;;;;;9.19;54.44;93704.44;5011054;28;20198;-64
2024/01/15 09:25:58;;;;;;;38.77;26.37;;;;;;;9.25;54.12;93696.19;5021494;28;20686;-64
2024/01/15 09:28:25;;;;;;;36.80;24.27;;;;;;;9.36;54.10;93693.34;5030751;28;20261;-68
2024/01/15 09:30:52;;;;;;;41.00;25.87;;;;;;;9.43;53.89;93701.97;5030202;28;20195;-61
2024/01/15 09:33:20;;;;;;;39.53;24.53;;;;;;;9.56;53.51;93691.31;5036076;28;20187;-66
2024/01/15 09:35:47;;;;;;;41.63;25.17;;;;;;;9.67;53.31;93669.78;5035188;28;20203;-66
2024/01/15 09:38:13;;;;;;;46.33;27.37;;;;;;;9.85;52.82;93665.38;5028159;28;20187;-67
2024/01/15 09:40:44;;;;;;;43.87;25.60;;;;;;;9.95;52.72;93665.22;5026379;28;20188;-66
2024/01/15 09:43:11;;;;;;;40.17;25.37;;;;;;;10.16;52.58;93670.63;5027099;28;20213;-67
2024/01/15 09:45:38;;;;;;;41.10;27.33;;;;;;;10.27;52.24;93657.56;5030013;28;20393;-63
2024/01/15 09:48:06;;;;;;;45.13;28.97;;;;;;;10.43;51.89;93653.41;5032240;28;20280;-66
2024/01/15 09:50:34;;;;;;;42.20;27.47;;;;;;;10.58;51.69;93644.09;5030857;28;20204;-67
2024/01/15 09:53:02;;;;;;;47.33;28.53;;;;;;;10.46;51.28;93596.84;5025204;28;20235;-65
2024/01/15 09:55:29;;;;;;;47.60;28.60;;;;;;;10.73;51.34;93634.78;5035240;28;20199;-63
2024/01/15 09:57:57;;;;;;;51.00;28.47;;;;;;;10.77;51.33;93630.16;5030042;28;20667;-66
2024/01/15 10:00:24;;;;;;;39.47;26.03;;;;;;;10.74;51.43;93620.25;5029473;28;20237;-66
2024/01/15 10:02:51;;;;;;;43.00;27.57;;;;;;;10.79;51.07;93636.69;5031097;28;20211;-62
2024/01/15 10:05:18;;;;;;;57.53;28.00;;;;;;;10.67;51.18;93606.53;5032736;28;20223;-64
2024/01/15 10:07:49;;;;;;;48.17;28.97;;;;;;;10.86;50.84;93644.50;5023415;28;20204;-65
2024/01/15 10:10:16;;;;;;;45.47;27.77;;;;;;;10.87;50.74;93623.06;5009978;28;20204;-61
2024/01/15 10:12:44;;;;;;;46.30;26.70;;;;;;;10.95;50.75;93612.81;5024329;28;20257;-62
2024/01/15 10:15:11;;;;;;;44.80;27.07;;;;;;;11.00;50.60;93617.41;5032480;28;20195;-67
2024/01/15 10:17:39;;;;;;;48.27;28.20;;;;;;;11.06;50.32;93601.41;5010322;28;20666;-65
2024/01/15 10:20:10;;;;;;;46.73;28.10;;;;;;;11.11;50.03;93599.16;5029388;28;20195;-64
2024/01/15 10:22:37;;;;;;;46.80;29.70;;;;;;;11.15;50.16;93597.84;5032530;28;20216;-62
2024/01/15 10:25:06;;;;;;;48.67;29.33;;;;;;;11.24;50.02;93591.72;5018672;28;20310;-64
2024/01/15 10:27:33;;;;;;;47.13;29.33;;;;;;;11.35;49.53;93582.84;5009652;28;20196;-63
2024/01/15 10:30:02;;;;;;;48.57;30.80;;;;;;;11.25;49.38;93543.91;5011083;28;20200;-68
2024/01/15 10:32:29;;;;;;;43.73;27.97;;;;;;;11.43;49.10;93554.63;5017511;28;20188;-62
2024/01/15 10:34:56;;;;;;;46.83;28.07;;;;;;;11.70;49.10;93580.69;5032424;28;20191;-62
2024/01/15 10:37:25;;;;;;;45.17;29.73;;;;;;;11.80;48.74;93576.16;5020110;28;20197;-64
2024/01/15 10:39:52;;;;;;;55.37;31.20;;;;;;;11.96;48.69;93578.59;5010232;28;20400;-65
2024/01/15 10:42:20;;;;;;;45.97;29.27;;;;;;;12.10;48.35;93577.03;5006966;28;20740;-66
2024/01/15 10:44:47;;;;;;;50.87;30.10;;;;;;;12.17;48.37;93589.94;5006285;28;20207;-65
2024/01/15 10:47:14;;;;;;;47.37;29.13;;;;;;;12.05;48.08;93549.38;5009659;28;20196;-65
2024/01/15 10:49:41;;;;;;;46.43;29.37;;;;;;;12.25;47.88;93566.78;5007710;28;20195;-65
2024/01/15 10:52:08;;;;;;;45.27;28.63;;;;;;;12.28;47.97;93566.44;5006053;28;20184;-63
2024/01/15 10:54:38;;;;;;;44.33;28.10;;;;;;;12.30;47.99;93549.13;5009730;28;20193;-63
2024/01/15 10:57:06;;;;;;;47.30;29.43;;;;;;;12.34;47.93;93557.25;5009378;28;20192;-65
2024/01/15 10:59:34;;;;;;;47.33;27.03;;;;;;;12.38;47.55;93563.63;5015810;28;20259;-62
2024/01/15 11:02:01;;;;;;;42.27;26.87;;;;;;;12.36;47.64;93553.56;5012065;28;20287;-61
2024/01/15 11:04:28;;;;;;;44.60;27.53;;;;;;;12.45;47.68;93556.81;5020047;28;20189;-63
2024/01/15 11:06:57;;;;;;;42.00;26.50;;;;;;;12.46;47.51;93532.78;5020487;28;20208;-66
2024/01/15 11:09:24;;;;;;;35.77;25.20;;;;;;;12.62;47.50;93531.81;5030410;28;20199;-64
2024/01/15 11:11:54;;;;;;;49.27;26.47;;;;;;;12.72;46.89;93537.44;5023845;28;20189;-62
2024/01/15 11:14:43;;;;;;;41.63;25.50;;;;;;;12.87;47.01;93533.09;5030048;28;20556;-61
2024/01/15 11:17:10;;;;;;;38.60;24.37;;;;;;;13.00;47.06;93527.31;5027437;28;20192;-64
2024/01/15 11:19:39;;;;;;;35.30;23.00;;;;;;;13.13;46.59;93522.31;5030233;28;20654;-64
2024/01/15 11:22:08;;;;;;;37.53;24.10;;;;;;;13.19;46.63;93503.59;5029084;28;20246;-62
2024/01/15 11:24:39;;;;;;;37.03;24.03;;;;;;;13.45;46.33;93520.28;5014106;28;20558;-66